createdAt,value
2022-11-10T00:00:56.311Z,11.70
2022-11-10T00:03:23.844Z,11.60
2022-11-10T00:05:50.782Z,11.70
2022-11-10T00:08:17.743Z,11.60
2022-11-10T00:11:01.528Z,11.50
2022-11-10T00:13:35.218Z,11.60
2022-11-10T00:16:22.637Z,11.60
2022-11-10T00:18:49.537Z,11.50
2022-11-10T00:21:17.440Z,11.60
2022-11-10T00:23:47.436Z,11.50
2022-11-10T00:26:17.268Z,11.50
2022-11-10T00:28:44.981Z,11.50
2022-11-10T00:31:12.951Z,11.50
2022-11-10T00:33:41.996Z,11.50
2022-11-10T00:36:08.944Z,11.50
2022-11-10T00:38:35.676Z,11.50
2022-11-10T00:41:02.447Z,11.50
2022-11-10T00:43:30.209Z,11.60
2022-11-10T00:45:57.343Z,11.60
2022-11-10T00:48:24.491Z,11.50
2022-11-10T00:50:51.828Z,11.60
2022-11-10T00:53:19.518Z,11.60
2022-11-10T00:55:46.429Z,11.70
2022-11-10T00:58:13.363Z,11.60
2022-11-10T01:00:41.475Z,11.60
2022-11-10T01:03:08.392Z,11.40
2022-11-10T01:05:38.695Z,11.50
2022-11-10T01:08:06.061Z,11.50
2022-11-10T01:10:32.904Z,11.50
2022-11-10T01:13:00.093Z,11.40
2022-11-10T01:15:28.043Z,11.40
2022-11-10T01:17:56.528Z,11.30
2022-11-10T01:20:24.547Z,11.30
2022-11-10T01:22:51.213Z,11.30
2022-11-10T01:25:18.001Z,11.10
2022-11-10T01:27:44.694Z,11.30
2022-11-10T01:30:11.825Z,11.20
2022-11-10T01:32:38.612Z,11.20
2022-11-10T01:35:05.887Z,11.20
2022-11-10T01:37:32.639Z,11.20
2022-11-10T01:39:59.430Z,11.30
2022-11-10T01:42:28.763Z,11.20
2022-11-10T01:45:23.171Z,11.30
2022-11-10T01:47:52.346Z,11.20
2022-11-10T01:50:21.448Z,11.20
2022-11-10T01:52:50.285Z,11.10
2022-11-10T01:55:17.879Z,11.10
2022-11-10T01:57:45.769Z,11.00
2022-11-10T02:00:13.303Z,11.00
2022-11-10T02:02:49.307Z,10.90
2022-11-10T02:05:16.236Z,10.90
2022-11-10T02:07:43.550Z,10.90
2022-11-10T02:10:18.881Z,10.80
2022-11-10T02:12:46.834Z,10.80
2022-11-10T02:15:17.101Z,10.80
2022-11-10T02:17:46.933Z,10.70
2022-11-10T02:20:16.800Z,10.80
2022-11-10T02:22:43.960Z,10.60
2022-11-10T02:25:13.705Z,10.70
2022-11-10T02:27:40.492Z,10.60
2022-11-10T02:30:07.880Z,10.70
2022-11-10T02:32:34.728Z,10.70
2022-11-10T02:35:02.154Z,10.70
2022-11-10T02:37:29.269Z,10.70
2022-11-10T02:39:56.024Z,10.60
2022-11-10T02:42:23.092Z,10.70
2022-11-10T02:44:51.475Z,10.60
2022-11-10T02:47:18.293Z,10.60
2022-11-10T02:49:45.363Z,10.60
2022-11-10T02:52:12.121Z,10.70
2022-11-10T02:54:38.961Z,10.80
2022-11-10T02:57:05.790Z,10.80
2022-11-10T02:59:32.996Z,10.80
2022-11-10T03:01:59.753Z,10.80
2022-11-10T03:04:26.591Z,10.70
2022-11-10T03:06:53.346Z,10.70
2022-11-10T03:09:20.472Z,10.70
2022-11-10T03:11:47.195Z,10.70
2022-11-10T03:14:13.920Z,10.60
2022-11-10T03:16:40.622Z,10.60
2022-11-10T03:19:07.374Z,10.60
2022-11-10T03:21:34.101Z,10.50
2022-11-10T03:24:00.741Z,10.50
2022-11-10T03:26:27.530Z,10.50
2022-11-10T03:28:54.221Z,10.40
2022-11-10T03:31:20.915Z,10.60
2022-11-10T03:33:47.584Z,10.40
2022-11-10T03:36:14.258Z,10.30
2022-11-10T03:38:40.946Z,10.30
2022-11-10T03:41:23.076Z,10.40
2022-11-10T03:43:50.245Z,10.30
2022-11-10T03:46:17.579Z,10.30
2022-11-10T03:48:48.787Z,10.30
2022-11-10T03:51:18.912Z,10.20
2022-11-10T03:53:45.566Z,10.10
2022-11-10T03:56:12.987Z,10.40
2022-11-10T03:58:40.426Z,10.10
2022-11-10T04:01:07.454Z,10.10
2022-11-10T04:03:34.182Z,10.10
2022-11-10T04:06:19.620Z,10.00
2022-11-10T04:09:01.620Z,10.10
2022-11-10T04:11:48.339Z,9.90
2022-11-10T04:14:33.849Z,10.00
2022-11-10T04:17:01.372Z,10.00
2022-11-10T04:19:28.378Z,10.00
2022-11-10T04:21:55.421Z,10.00
2022-11-10T04:24:22.114Z,10.00
2022-11-10T04:26:49.310Z,9.90
2022-11-10T04:29:18.919Z,10.00
2022-11-10T04:31:45.728Z,10.00
2022-11-10T04:34:14.793Z,10.00
2022-11-10T04:36:43.366Z,10.00
2022-11-10T04:39:10.686Z,10.00
2022-11-10T04:41:37.517Z,9.90
2022-11-10T04:44:05.116Z,9.90
2022-11-10T04:46:37.752Z,10.00
2022-11-10T04:49:06.259Z,10.00
2022-11-10T04:51:38.198Z,10.00
2022-11-10T04:54:06.574Z,10.00
2022-11-10T04:56:34.571Z,10.00
2022-11-10T04:59:01.518Z,10.00
2022-11-10T05:01:28.536Z,10.00
2022-11-10T05:03:55.792Z,10.00
2022-11-10T05:06:22.862Z,10.00
2022-11-10T05:08:49.594Z,10.00
2022-11-10T05:11:17.198Z,10.10
2022-11-10T05:13:45.086Z,10.20
2022-11-10T05:16:12.518Z,10.30
2022-11-10T05:18:39.217Z,10.40
2022-11-10T05:21:06.085Z,10.50
2022-11-10T05:23:39.015Z,10.50
2022-11-10T05:26:16.685Z,10.60
2022-11-10T05:28:45.461Z,10.60
2022-11-10T05:31:12.763Z,10.70
2022-11-10T05:33:40.042Z,10.80
2022-11-10T05:36:07.720Z,10.50
2022-11-10T05:38:38.849Z,10.30
2022-11-10T05:41:08.714Z,10.10
2022-11-10T05:43:36.544Z,10.10
2022-11-10T05:46:18.559Z,10.10
2022-11-10T05:49:30.375Z,10.10
2022-11-10T05:51:57.039Z,10.20
2022-11-10T05:54:23.697Z,10.20
2022-11-10T05:56:50.371Z,10.30
2022-11-10T05:59:17.125Z,10.40
2022-11-10T06:01:43.797Z,10.40
2022-11-10T06:04:10.428Z,10.50
2022-11-10T06:06:37.434Z,10.50
2022-11-10T06:09:04.217Z,10.50
2022-11-10T06:11:30.855Z,10.20
2022-11-10T06:13:57.511Z,10.10
2022-11-10T06:16:24.161Z,10.00
2022-11-10T06:18:50.777Z,9.90
2022-11-10T06:21:17.430Z,9.70
2022-11-10T06:23:44.103Z,9.60
2022-11-10T06:26:10.809Z,9.60
2022-11-10T06:28:37.470Z,9.50
2022-11-10T06:31:04.174Z,9.40
2022-11-10T06:33:30.910Z,9.40
2022-11-10T06:35:57.529Z,9.30
2022-11-10T06:38:24.168Z,9.30
2022-11-10T06:40:50.807Z,9.20
2022-11-10T06:43:17.466Z,9.20
2022-11-10T06:45:44.104Z,9.10
2022-11-10T06:48:13.766Z,9.10
2022-11-10T06:50:40.711Z,9.10
2022-11-10T06:53:07.553Z,9.10
2022-11-10T06:55:34.207Z,9.10
2022-11-10T06:58:00.923Z,9.20
2022-11-10T07:00:29.363Z,9.10
2022-11-10T07:03:07.281Z,9.10
2022-11-10T07:05:36.071Z,9.20
2022-11-10T07:08:10.936Z,9.10
2022-11-10T07:10:37.649Z,9.00
2022-11-10T07:13:05.483Z,9.00
2022-11-10T07:15:33.594Z,9.00
2022-11-10T07:18:00.817Z,9.00
2022-11-10T07:20:28.387Z,9.10
2022-11-10T07:23:00.269Z,9.10
2022-11-10T07:25:28.361Z,9.10
2022-11-10T07:27:56.773Z,9.20
2022-11-10T07:30:23.542Z,9.30
2022-11-10T07:33:01.012Z,9.30
2022-11-10T07:35:28.450Z,9.30
2022-11-10T07:38:01.586Z,9.30
2022-11-10T07:40:28.526Z,9.40
2022-11-10T07:42:55.202Z,9.40
2022-11-10T07:45:22.054Z,9.40
2022-11-10T07:47:48.746Z,9.40
2022-11-10T07:50:15.914Z,9.40
2022-11-10T07:52:42.646Z,9.50
2022-11-10T07:55:09.432Z,9.50
2022-11-10T07:57:36.116Z,9.50
2022-11-10T08:00:03.373Z,9.60
2022-11-10T08:02:30.056Z,9.70
2022-11-10T08:04:56.889Z,9.70
2022-11-10T08:07:23.608Z,10.00
2022-11-10T08:09:50.656Z,9.90
2022-11-10T08:12:17.378Z,9.90
2022-11-10T08:14:44.156Z,10.00
2022-11-10T08:17:10.894Z,10.00
2022-11-10T08:19:37.547Z,10.10
2022-11-10T08:22:04.219Z,10.10
2022-11-10T08:24:30.910Z,10.20
2022-11-10T08:26:57.568Z,10.30
2022-11-10T08:29:24.204Z,10.30
2022-11-10T08:31:51.589Z,10.30
2022-11-10T08:34:18.320Z,10.30
2022-11-10T08:36:45.029Z,10.30
2022-11-10T08:39:13.296Z,10.30
2022-11-10T08:41:44.142Z,10.40
2022-11-10T08:44:11.263Z,10.30
2022-11-10T08:46:38.353Z,10.30
2022-11-10T08:49:05.071Z,10.30
2022-11-10T08:51:36.296Z,10.20
2022-11-10T08:54:05.540Z,10.30
2022-11-10T08:56:32.248Z,10.30
2022-11-10T08:58:58.916Z,10.30
2022-11-10T09:01:25.583Z,10.30
2022-11-10T09:03:52.283Z,10.40
2022-11-10T09:06:18.948Z,10.50
2022-11-10T09:08:45.663Z,10.60
2022-11-10T09:11:12.371Z,10.50
2022-11-10T09:13:39.085Z,10.50
2022-11-10T09:16:06.615Z,10.50
2022-11-10T09:18:33.645Z,10.50
2022-11-10T09:21:02.065Z,10.40
2022-11-10T09:23:28.763Z,10.40
2022-11-10T09:25:56.444Z,10.60
2022-11-10T09:28:23.743Z,10.50
2022-11-10T09:30:52.084Z,10.50
2022-11-10T09:33:19.223Z,10.60
2022-11-10T09:35:46.126Z,10.60
2022-11-10T09:38:12.988Z,10.70
2022-11-10T09:41:05.779Z,10.70
2022-11-10T09:43:38.801Z,10.80
2022-11-10T09:46:23.501Z,10.80
2022-11-10T09:48:54.796Z,10.90
2022-11-10T09:51:24.250Z,11.00
2022-11-10T09:54:05.788Z,11.00
2022-11-10T09:56:34.923Z,11.10
2022-11-10T09:59:07.485Z,11.10
2022-11-10T10:01:47.549Z,11.30
2022-11-10T10:04:17.063Z,11.20
2022-11-10T10:07:15.469Z,11.20
2022-11-10T10:10:11.841Z,11.30
2022-11-10T10:13:04.580Z,11.40
2022-11-10T10:16:03.327Z,11.40
2022-11-10T10:18:52.829Z,11.50
2022-11-10T10:21:34.507Z,11.50
2022-11-10T10:24:13.978Z,11.50
2022-11-10T10:26:55.201Z,11.50
2022-11-10T10:29:45.325Z,11.60
2022-11-10T10:32:14.431Z,11.70
2022-11-10T10:34:43.367Z,11.60
2022-11-10T10:37:45.743Z,11.70
2022-11-10T10:40:19.063Z,11.80
2022-11-10T10:42:46.169Z,11.90
2022-11-10T10:45:18.553Z,11.90
2022-11-10T10:47:46.972Z,11.80
2022-11-10T10:50:22.899Z,11.80
2022-11-10T10:53:17.534Z,11.80
2022-11-10T10:55:52.590Z,11.80
2022-11-10T10:58:30.751Z,11.90
2022-11-10T11:01:15.870Z,12.00
2022-11-10T11:03:45.214Z,12.10
2022-11-10T11:06:14.597Z,12.10
2022-11-10T11:09:00.301Z,12.20
2022-11-10T11:11:32.038Z,12.30
2022-11-10T11:14:19.653Z,12.30
2022-11-10T11:16:56.951Z,12.30
2022-11-10T11:19:35.952Z,12.40
2022-11-10T11:22:21.127Z,12.40
2022-11-10T11:24:54.937Z,12.40
2022-11-10T11:27:39.912Z,12.40
2022-11-10T11:30:15.032Z,12.50
2022-11-10T11:33:03.568Z,12.60
2022-11-10T11:35:38.908Z,12.70
2022-11-10T11:38:12.873Z,12.80
2022-11-10T11:40:42.490Z,12.90
2022-11-10T11:43:33.404Z,12.90
2022-11-10T11:46:44.939Z,13.00
2022-11-10T11:49:46.240Z,12.90
2022-11-10T11:52:28.305Z,13.00
2022-11-10T11:55:21.882Z,13.00
2022-11-10T11:57:57.404Z,13.00
2022-11-10T12:00:24.621Z,13.00
2022-11-10T12:03:17.142Z,12.90
2022-11-10T12:06:00.349Z,12.90
2022-11-10T12:08:37.384Z,12.80
2022-11-10T12:11:33.338Z,12.80
2022-11-10T12:14:30.326Z,12.70
2022-11-10T12:17:23.589Z,12.60
2022-11-10T12:20:19.566Z,12.60
2022-11-10T12:23:22.999Z,12.60
2022-11-10T12:25:52.775Z,12.50
2022-11-10T12:28:31.568Z,12.50
2022-11-10T12:31:02.925Z,12.50
2022-11-10T12:33:56.564Z,12.50
2022-11-10T12:36:26.206Z,12.50
2022-11-10T12:39:00.198Z,12.60
2022-11-10T12:41:36.715Z,12.70
2022-11-10T12:44:22.582Z,12.80
2022-11-10T12:46:55.315Z,12.90
2022-11-10T12:49:31.044Z,13.00
2022-11-10T12:52:12.724Z,13.10
2022-11-10T12:54:41.539Z,13.20
2022-11-10T12:57:28.564Z,13.30
2022-11-10T13:00:01.677Z,13.30
2022-11-10T13:02:43.653Z,13.10
2022-11-10T13:05:37.713Z,13.10
2022-11-10T13:08:20.809Z,13.20
2022-11-10T13:11:13.960Z,13.20
2022-11-10T13:14:05.337Z,13.30
2022-11-10T13:16:38.751Z,13.40
2022-11-10T13:19:08.697Z,13.50
2022-11-10T13:21:53.575Z,13.50
2022-11-10T13:24:20.231Z,13.50
2022-11-10T13:27:00.443Z,13.70
2022-11-10T13:29:55.483Z,13.70
2022-11-10T13:32:30.998Z,13.80
2022-11-10T13:35:29.772Z,13.80
2022-11-10T13:37:59.828Z,13.60
2022-11-10T13:40:34.264Z,13.50
2022-11-10T13:43:00.909Z,13.40
2022-11-10T13:45:32.683Z,13.40
2022-11-10T13:48:11.746Z,13.40
2022-11-10T13:51:03.141Z,13.40
2022-11-10T13:54:09.895Z,13.40
2022-11-10T13:57:00.067Z,13.30
2022-11-10T13:59:30.998Z,13.40
2022-11-10T14:02:36.258Z,13.50
2022-11-10T14:05:06.351Z,13.30
2022-11-10T14:07:46.094Z,13.40
2022-11-10T14:10:25.664Z,13.50
2022-11-10T14:13:00.791Z,13.50
2022-11-10T14:15:43.970Z,13.50
2022-11-10T14:18:47.905Z,13.60
2022-11-10T14:21:41.170Z,13.70
2022-11-10T14:24:33.031Z,13.80
2022-11-10T14:27:05.602Z,14.00
2022-11-10T14:29:40.657Z,14.20
2022-11-10T14:32:18.875Z,14.20
2022-11-10T14:34:49.410Z,14.30
2022-11-10T14:37:22.975Z,14.30
2022-11-10T14:39:52.835Z,14.20
2022-11-10T14:42:24.551Z,14.20
2022-11-10T14:45:06.620Z,14.20
2022-11-10T14:47:33.376Z,14.30
2022-11-10T14:50:07.265Z,14.30
2022-11-10T14:52:39.049Z,14.40
2022-11-10T14:55:14.797Z,14.30
2022-11-10T14:57:41.606Z,14.20
2022-11-10T15:00:15.190Z,14.20
2022-11-10T15:02:42.190Z,14.20
2022-11-10T15:05:14.908Z,14.20
2022-11-10T15:07:43.328Z,14.20
2022-11-10T15:10:27.826Z,14.30
2022-11-10T15:13:19.491Z,14.30
2022-11-10T15:15:46.222Z,14.30
2022-11-10T15:18:41.982Z,14.30
2022-11-10T15:21:12.465Z,14.30
2022-11-10T15:23:43.872Z,14.30
2022-11-10T15:26:28.649Z,14.20
2022-11-10T15:28:55.672Z,14.10
2022-11-10T15:31:33.693Z,14.10
2022-11-10T15:34:02.370Z,14.20
2022-11-10T15:36:34.465Z,13.90
2022-11-10T15:39:13.903Z,13.80
2022-11-10T15:41:47.831Z,13.70
2022-11-10T15:44:24.557Z,13.60
2022-11-10T15:46:54.141Z,13.50
2022-11-10T15:49:27.145Z,13.40
2022-11-10T15:52:06.460Z,13.40
2022-11-10T15:54:35.745Z,13.40
2022-11-10T15:57:02.436Z,13.30
2022-11-10T15:59:29.613Z,13.30
2022-11-10T16:01:57.715Z,13.20
2022-11-10T16:04:27.064Z,13.20
2022-11-10T16:06:53.791Z,13.20
2022-11-10T16:09:20.565Z,13.10
2022-11-10T16:11:47.287Z,13.00
2022-11-10T16:14:16.629Z,12.90
2022-11-10T16:16:43.940Z,12.80
2022-11-10T16:19:11.791Z,12.70
2022-11-10T16:21:38.782Z,12.70
2022-11-10T16:24:05.641Z,12.70
2022-11-10T16:26:34.526Z,12.60
2022-11-10T16:29:01.600Z,12.60
2022-11-10T16:31:29.299Z,12.60
2022-11-10T16:33:55.986Z,12.60
2022-11-10T16:36:28.768Z,12.50
2022-11-10T16:38:56.044Z,12.50
2022-11-10T16:41:23.177Z,12.80
2022-11-10T16:43:50.079Z,12.70
2022-11-10T16:46:28.424Z,12.70
2022-11-10T16:48:58.461Z,12.80
2022-11-10T16:51:47.253Z,12.80
2022-11-10T16:54:15.922Z,12.80
2022-11-10T16:56:42.751Z,12.70
2022-11-10T16:59:13.703Z,12.80
2022-11-10T17:01:42.996Z,12.70
2022-11-10T17:04:12.257Z,12.70
2022-11-10T17:06:39.088Z,12.60
2022-11-10T17:09:15.481Z,12.70
2022-11-10T17:11:42.191Z,12.60
2022-11-10T17:14:11.342Z,12.60
2022-11-10T17:16:43.020Z,12.60
2022-11-10T17:19:17.607Z,12.70
2022-11-10T17:21:45.262Z,12.60
2022-11-10T17:24:14.602Z,12.60
2022-11-10T17:26:42.492Z,12.50
2022-11-10T17:29:20.923Z,12.50
2022-11-10T17:31:50.638Z,12.60
2022-11-10T17:34:17.529Z,12.60
2022-11-10T17:36:44.370Z,12.60
2022-11-10T17:39:14.479Z,12.70
2022-11-10T17:41:41.424Z,12.70
2022-11-10T17:44:14.131Z,12.70
2022-11-10T17:46:41.794Z,12.70
2022-11-10T17:49:08.745Z,12.70
2022-11-10T17:51:36.636Z,12.70
2022-11-10T17:54:06.268Z,12.70
2022-11-10T17:56:33.162Z,12.70
2022-11-10T17:59:00.006Z,12.70
2022-11-10T18:01:26.851Z,12.70
2022-11-10T18:03:53.602Z,12.80
2022-11-10T18:06:20.984Z,12.70
2022-11-10T18:08:48.069Z,12.60
2022-11-10T18:11:17.819Z,12.50
2022-11-10T18:13:45.189Z,12.50
2022-11-10T18:16:14.165Z,12.40
2022-11-10T18:18:41.260Z,12.30
2022-11-10T18:21:09.507Z,12.30
2022-11-10T18:23:36.402Z,12.30
2022-11-10T18:26:11.694Z,12.30
2022-11-10T18:28:39.825Z,12.20
2022-11-10T18:31:08.379Z,12.20
2022-11-10T18:33:36.787Z,12.30
2022-11-10T18:36:04.182Z,12.30
2022-11-10T18:41:32.098Z,12.20
2022-11-10T18:43:58.959Z,12.30
2022-11-10T18:46:25.725Z,12.20
2022-11-10T18:49:05.007Z,12.20
2022-11-10T18:51:35.499Z,12.20
2022-11-10T18:54:02.785Z,12.20
2022-11-10T18:56:29.504Z,12.10
2022-11-10T18:58:57.102Z,12.20
2022-11-10T19:01:24.708Z,12.20
2022-11-10T19:03:51.592Z,12.20
2022-11-10T19:06:18.636Z,12.20
2022-11-10T19:08:45.725Z,12.20
2022-11-10T19:11:16.122Z,12.20
2022-11-10T19:13:43.716Z,12.20
2022-11-10T19:16:15.429Z,12.20
2022-11-10T19:18:43.695Z,12.20
2022-11-10T19:21:15.807Z,12.20
2022-11-10T19:23:43.277Z,12.20
2022-11-10T19:26:17.899Z,12.20
2022-11-10T19:28:47.878Z,12.20
2022-11-10T19:31:16.817Z,12.10
2022-11-10T19:33:45.040Z,12.10
2022-11-10T19:36:14.432Z,12.10
2022-11-10T19:38:42.610Z,12.10
2022-11-10T19:41:17.989Z,12.10
2022-11-10T19:43:47.412Z,12.10
2022-11-10T19:46:17.253Z,12.00
2022-11-10T19:48:44.868Z,12.00
2022-11-10T19:51:13.539Z,12.00
2022-11-10T19:53:41.853Z,12.00
2022-11-10T19:56:15.535Z,11.90
2022-11-10T19:58:44.156Z,12.00
2022-11-10T20:01:12.411Z,11.90
2022-11-10T20:03:43.303Z,11.90
2022-11-10T20:06:12.483Z,12.00
2022-11-10T20:08:39.694Z,11.90
2022-11-10T20:11:14.744Z,11.90
2022-11-10T20:13:43.066Z,11.90
2022-11-10T20:16:12.931Z,11.90
2022-11-10T20:18:43.426Z,11.80
2022-11-10T20:21:18.043Z,11.80
2022-11-10T20:23:45.121Z,11.80
2022-11-10T20:26:15.309Z,11.80
2022-11-10T20:28:44.326Z,11.80
2022-11-10T20:31:20.649Z,11.80
2022-11-10T20:33:52.626Z,11.80
2022-11-10T20:36:24.169Z,11.70
2022-11-10T20:38:52.540Z,11.80
2022-11-10T20:41:28.891Z,11.80
2022-11-10T20:43:55.981Z,11.80
2022-11-10T20:46:48.279Z,11.70
2022-11-10T20:49:10.325Z,11.70
2022-11-10T20:51:37.544Z,11.70
2022-11-10T20:54:04.331Z,11.70
2022-11-10T20:56:31.283Z,11.70
2022-11-10T20:58:59.016Z,11.60
2022-11-10T21:01:26.175Z,11.60
2022-11-10T21:03:54.372Z,11.60
2022-11-10T21:06:21.698Z,11.60
2022-11-10T21:08:48.505Z,11.60
2022-11-10T21:11:35.141Z,11.50
2022-11-10T21:14:02.140Z,11.50
2022-11-10T21:16:29.086Z,11.50
2022-11-10T21:18:56.740Z,11.40
2022-11-10T21:21:34.224Z,11.40
2022-11-10T21:24:01.863Z,11.40
2022-11-10T21:26:28.748Z,11.30
2022-11-10T21:28:58.066Z,11.30
2022-11-10T21:31:24.977Z,11.30
2022-11-10T21:33:54.993Z,11.30
2022-11-10T21:36:21.910Z,11.20
2022-11-10T21:38:50.710Z,11.20
2022-11-10T21:41:17.542Z,11.20
2022-11-10T21:43:45.378Z,11.20
2022-11-10T21:46:13.148Z,11.20
2022-11-10T21:48:40.267Z,11.20
2022-11-10T21:51:08.962Z,11.20
2022-11-10T21:53:36.981Z,11.20
2022-11-10T21:56:08.552Z,11.20
2022-11-10T21:58:37.865Z,11.20
2022-11-10T22:01:28.357Z,11.10
2022-11-10T22:03:55.130Z,11.10
2022-11-10T22:06:22.272Z,11.10
2022-11-10T22:08:49.473Z,11.10
2022-11-10T22:11:40.045Z,11.20
2022-11-10T22:14:31.863Z,11.10
2022-11-10T22:17:18.537Z,11.10
2022-11-10T22:19:45.403Z,11.00
2022-11-10T22:22:14.195Z,11.00
2022-11-10T22:24:41.706Z,11.00
2022-11-10T22:27:08.773Z,11.00
2022-11-10T22:29:35.723Z,11.00
2022-11-10T22:32:03.637Z,11.00
2022-11-10T22:34:30.398Z,11.00
2022-11-10T22:36:59.599Z,11.00
2022-11-10T22:39:46.965Z,10.90
2022-11-10T22:42:34.183Z,10.90
2022-11-10T22:45:02.591Z,10.90
2022-11-10T22:47:49.331Z,10.90
2022-11-10T22:50:16.088Z,10.90
2022-11-10T22:52:42.987Z,10.90
2022-11-10T22:55:09.788Z,10.90
2022-11-10T22:57:36.540Z,10.90
2022-11-10T23:00:04.124Z,10.80
2022-11-10T23:02:30.801Z,10.80
2022-11-10T23:04:57.548Z,10.80
2022-11-10T23:07:24.305Z,10.80
2022-11-10T23:09:50.929Z,10.80
2022-11-10T23:12:18.252Z,10.80
2022-11-10T23:14:44.904Z,10.80
2022-11-10T23:17:11.565Z,10.80
2022-11-10T23:19:38.392Z,10.80
2022-11-10T23:22:05.009Z,10.70
2022-11-10T23:24:31.672Z,10.70
2022-11-10T23:26:58.359Z,10.70
2022-11-10T23:29:25.017Z,10.70
2022-11-10T23:31:51.722Z,10.60
2022-11-10T23:34:18.408Z,10.60
2022-11-10T23:36:45.065Z,10.50
2022-11-10T23:39:13.118Z,10.60
2022-11-10T23:41:39.738Z,10.60
2022-11-10T23:44:06.423Z,10.60
2022-11-10T23:46:33.131Z,10.60
2022-11-10T23:48:59.757Z,10.50
2022-11-10T23:51:26.468Z,10.60
2022-11-10T23:53:53.140Z,10.40
2022-11-10T23:56:19.783Z,10.50
2022-11-10T23:58:46.402Z,10.50
